Flight Number: EUR2047 Duration: 6:00
Departure: Munich Int'l (EDDM) at 08:00 Distance: 2467 Nm
Arrival: Dubai Int'l (OMDB) at 14:00 Equipment: A340

Weather Information
Munchen, Germany (EDDM) 48-21N 011-47E Jan 21, 2019 - 07:20 AM EST / 2019.01.21 1220 UTC
Wind: from the ENE (060 degrees) at 3 MPH (3 KT) (direction variable):0
Visibility: greater than 7 mile(s):0
Sky conditions: mostly clear Temperature: 28 F (-2 C) Dew Point: 23 F (-5 C) Relative Humidity: 79% Pressure (altimeter): 30.09 in. Hg (1019 hPa)
ob: EDDM 211220Z 06003KT 350V090 9999 FEW016 M02/M05 Q1019 NOSIG cycle: 12
Sunrise: 06:57 Sunset: 15:50 (UTC)

Dubai International Airport, United Arab Emirates (OMDB) 25-15N 055-20E 5M Jan 21, 2019 - 07:00 AM EST / 2019.01.21 1200 UTC
Wind: from the NW (320 degrees) at 12 MPH (10 KT) (direction variable):0
Visibility: greater than 7 mile(s):0 Temperature: 73 F (23 C) Dew Point: 48 F (9 C) Relative Humidity: 40% Pressure (altimeter): 30.00 in. Hg (1016 hPa)
ob: OMDB 211200Z 32010KT 280V010 CAVOK 23/09 Q1016 NOSIG cycle: 12
Sunrise: 03:07 Sunset: 13:51 (UTC)

TAF:2019/01/21 12:03 TAF OMDB 211100Z 2112/2218 29010KT CAVOK BECMG 2115/2117 19007KT BECMG 2207/2209 27012KT BECMG 2216/2218 18005KT

Previous Pireps for this route
Date Aircraft Flight time Fuel used Landing rate On time
2012-08-13A3405.45730000Yes
2012-10-06A34005.4895165-748Yes
2012-10-28A3406.001250000No
2012-12-08A34005.42149767-228Yes
2013-02-01A3405.301821000No
2013-02-28A3406.08100900No
2013-03-26A34005.2699508-228Yes
2013-04-08B73705.4731128-130Charter
2013-05-31A34006.06101633-552Yes
2014-04-01A34005.56102065-410Yes
2014-06-29A3405.44918400No
2015-01-31A34005.2286794-158No
2015-03-25B74705.39125580-261Charter
2015-05-01A34005.33120903-69Yes
2015-05-27B74705.59119407-102Charter
2015-08-06A34005.2682535-84Yes
2015-08-26A34005.2183745-190Yes
2016-06-08B77705.4990055-508.46Yes
2018-02-24B77705.55280469-484Charter
(pireps marked green are flown by you)

Route map